Time;durP1;ratioP1;P1;durP2;ratioP2;P2;SDS_P1;SDS_P2;PMS_P1;PMS_P2;Temp;Humidity;BMP_temperature;BMP_pressure;BME280_temperature;BME280_humidity;BME280_pressure;Samples;Min_cycle;Max_cycle;Signal;HPM_P1;HPM_P2
2021/04/04 00:01:10;;;;;;;2.53;2.33;;;;;;;24.19;20.85;94175.75;5056533;28;20053;-41
2021/04/04 00:03:37;;;;;;;2.83;2.53;;;;;;;23.97;21.43;94177.59;5056358;28;20475;-58
2021/04/04 00:06:04;;;;;;;2.80;2.50;;;;;;;24.41;20.91;94173.94;5055929;28;20048;-54
2021/04/04 00:08:31;;;;;;;2.55;2.30;;;;;;;24.57;20.50;94177.81;5055939;28;20340;-54
2021/04/04 00:10:58;;;;;;;2.95;2.65;;;;;;;24.41;20.52;94198.75;5038637;28;20055;-46
2021/04/04 00:13:25;;;;;;;2.63;2.40;;;;;;;24.04;21.06;94198.22;5055964;28;20051;-47
2021/04/04 00:15:53;;;;;;;2.78;2.30;;;;;;;23.93;21.23;94190.91;5055723;28;20458;-50
2021/04/04 00:18:20;;;;;;;3.22;2.38;;;;;;;23.96;21.36;94198.19;5066447;28;20048;-54
2021/04/04 00:20:47;;;;;;;2.83;2.55;;;;;;;23.89;21.18;94190.13;5058409;28;20040;-40
2021/04/04 00:23:14;;;;;;;2.97;2.40;;;;;;;23.94;21.37;94195.13;5058354;28;20434;-39
2021/04/04 00:25:41;;;;;;;2.92;2.63;;;;;;;23.93;21.42;94193.56;5075690;28;20048;-40
2021/04/04 00:28:08;;;;;;;2.65;2.10;;;;;;;23.60;21.99;94196.47;5075704;28;20063;-40
2021/04/04 00:30:35;;;;;;;2.67;2.20;;;;;;;23.52;21.96;94198.31;5071013;28;20052;-40
2021/04/04 00:33:02;;;;;;;2.80;2.33;;;;;;;23.59;21.84;94194.94;5055766;28;20049;-40
2021/04/04 00:35:30;;;;;;;2.80;2.50;;;;;;;23.34;22.10;94195.50;5055524;28;20048;-40
2021/04/04 00:37:57;;;;;;;2.75;2.10;;;;;;;23.52;21.67;94200.97;5055632;28;20382;-40
2021/04/04 00:40:25;;;;;;;2.67;2.28;;;;;;;23.57;21.74;94207.88;5055284;28;20045;-40
2021/04/04 00:42:53;;;;;;;2.30;2.10;;;;;;;23.35;22.12;94215.72;5055573;28;20048;-40
2021/04/04 00:45:22;;;;;;;2.78;2.28;;;;;;;23.32;21.92;94213.00;5055585;28;20407;-40
2021/04/04 00:47:50;;;;;;;2.92;2.63;;;;;;;23.54;21.90;94203.25;5044106;28;20045;-40
2021/04/04 00:50:20;;;;;;;2.85;2.58;;;;;;;23.46;21.97;94217.69;5075069;28;20077;-39
2021/04/04 00:52:47;;;;;;;2.60;2.30;;;;;;;23.50;22.19;94213.16;5075332;28;20047;-41
2021/04/04 00:55:15;;;;;;;2.70;2.30;;;;;;;23.58;21.66;94210.16;5075341;28;20044;-40
2021/04/04 00:57:43;;;;;;;2.80;2.22;;;;;;;23.33;21.87;94225.97;5075177;28;20045;-40
2021/04/04 01:00:23;;;;;;;2.47;2.20;;;;;;;23.36;22.07;94219.13;5075215;28;20052;-40
2021/04/04 01:02:53;;;;;;;2.25;2.05;;;;;;;23.20;22.10;94222.09;5075357;28;20053;-40
2021/04/04 01:05:30;;;;;;;2.00;1.80;;;;;;;23.44;22.06;94215.41;5075431;28;20036;-40
2021/04/04 01:07:58;;;;;;;2.40;2.00;;;;;;;22.99;22.21;94229.91;5074803;28;20056;-40
2021/04/04 01:10:31;;;;;;;2.03;1.83;;;;;;;23.50;21.64;94234.50;5074977;28;20052;-59
2021/04/04 01:13:13;;;;;;;2.13;1.80;;;;;;;23.20;22.21;94227.41;5075255;28;20047;-46
2021/04/04 01:15:49;;;;;;;2.38;1.75;;;;;;;23.10;22.39;94222.75;5074847;28;20056;-51
2021/04/04 01:18:30;;;;;;;2.13;1.90;;;;;;;23.21;22.31;94228.94;5056614;28;20041;-40
2021/04/04 01:21:00;;;;;;;2.75;2.10;;;;;;;23.29;22.30;94219.84;5055060;28;20056;-40
2021/04/04 01:23:51;;;;;;;2.05;1.85;;;;;;;23.14;22.02;94218.19;5052364;28;20053;-40
2021/04/04 01:26:49;;;;;;;2.42;2.08;;;;;;;23.15;21.99;94221.63;5054939;28;20049;-40
2021/04/04 01:29:19;;;;;;;2.40;1.98;;;;;;;22.78;22.20;94220.53;5054663;28;20076;-55
2021/04/04 01:31:50;;;;;;;2.20;2.00;;;;;;;22.71;22.25;94217.81;5037318;28;20111;-51
2021/04/04 01:34:20;;;;;;;2.50;2.00;;;;;;;23.22;21.75;94216.38;5054952;28;20044;-48
2021/04/04 01:36:51;;;;;;;3.72;2.10;;;;;;;23.33;21.86;94215.31;5054819;28;20049;-46
2021/04/04 01:39:20;;;;;;;2.30;2.03;;;;;;;23.02;22.11;94211.25;5037791;28;20431;-48
2021/04/04 01:41:49;;;;;;;2.15;1.95;;;;;;;23.00;22.17;94218.09;5039263;28;20048;-52
2021/04/04 01:44:17;;;;;;;2.25;2.00;;;;;;;22.95;22.16;94216.53;5058901;28;20041;-41
2021/04/04 01:46:47;;;;;;;2.55;2.00;;;;;;;22.95;22.17;94211.22;5058570;28;20048;-40
2021/04/04 01:49:16;;;;;;;3.03;2.30;;;;;;;23.11;21.77;94207.50;5059189;28;20047;-41
2021/04/04 01:51:44;;;;;;;2.55;2.35;;;;;;;23.14;21.80;94212.88;5078380;28;20059;-40
2021/04/04 01:54:12;;;;;;;3.83;2.47;;;;;;;23.03;22.01;94204.03;5061119;28;20044;-41
2021/04/04 01:56:40;;;;;;;3.10;2.80;;;;;;;22.77;22.63;94204.91;5078406;28;20051;-40
2021/04/04 01:59:07;;;;;;;3.38;2.95;;;;;;;22.90;22.38;94213.44;5060634;28;20049;-40
2021/04/04 02:01:36;;;;;;;3.35;2.88;;;;;;;22.84;22.23;94210.34;5061081;28;20458;-40
2021/04/04 02:04:08;;;;;;;3.10;2.80;;;;;;;22.93;22.31;94212.72;5061027;28;20366;-40
2021/04/04 02:06:38;;;;;;;3.35;3.05;;;;;;;22.75;22.28;94221.28;5078396;28;20048;-39
2021/04/04 02:09:07;;;;;;;3.80;3.40;;;;;;;22.89;22.24;94206.56;5060514;28;20071;-40
2021/04/04 02:11:34;;;;;;;3.80;3.35;;;;;;;22.94;22.17;94203.59;5060993;28;20041;-40
2021/04/04 02:14:22;;;;;;;3.63;3.33;;;;;;;23.03;22.24;94193.38;5060942;28;20048;-42
2021/04/04 02:16:52;;;;;;;4.30;3.90;;;;;;;22.75;22.38;94202.63;5060600;28;20056;-40
2021/04/04 02:19:20;;;;;;;4.50;4.03;;;;;;;22.80;22.08;94198.09;5044174;28;20045;-41
2021/04/04 02:21:52;;;;;;;4.30;3.90;;;;;;;22.78;22.01;94196.56;5040759;28;20052;-41
2021/04/04 02:24:20;;;;;;;4.13;3.72;;;;;;;22.86;21.98;94194.75;5078259;28;20044;-40
2021/04/04 02:26:49;;;;;;;4.32;3.92;;;;;;;22.86;21.98;94191.31;5077936;28;20066;-41
2021/04/04 02:29:16;;;;;;;4.25;3.85;;;;;;;22.49;22.71;94197.41;5060224;28;20053;-40
2021/04/04 02:31:53;;;;;;;5.25;4.32;;;;;;;22.56;22.39;94194.81;5060626;28;20067;-40
2021/04/04 02:34:23;;;;;;;4.85;4.35;;;;;;;22.92;22.30;94192.53;5077902;28;20059;-40
2021/04/04 02:36:50;;;;;;;4.63;4.03;;;;;;;22.76;22.32;94198.81;5077968;28;20053;-40
2021/04/04 02:39:22;;;;;;;4.40;4.00;;;;;;;22.66;22.62;94194.19;5060025;28;20111;-40
2021/04/04 02:41:49;;;;;;;4.50;4.10;;;;;;;22.44;22.86;94197.75;5077795;28;20048;-40
2021/04/04 02:44:17;;;;;;;5.07;4.57;;;;;;;22.64;22.63;94188.44;5060267;28;20049;-41
2021/04/04 02:46:51;;;;;;;5.20;4.70;;;;;;;22.63;22.61;94189.56;5040190;28;20445;-40
2021/04/04 02:49:20;;;;;;;4.78;4.38;;;;;;;22.41;23.17;94185.16;5023089;28;20049;-41
2021/04/04 02:51:52;;;;;;;5.50;5.00;;;;;;;22.78;22.65;94187.78;5040018;28;20071;-42
2021/04/04 02:54:25;;;;;;;6.00;5.13;;;;;;;22.68;22.65;94186.56;5057101;28;20048;-40
2021/04/04 02:56:54;;;;;;;6.00;5.40;;;;;;;22.73;22.30;94188.91;5057433;28;20384;-40
2021/04/04 02:59:28;;;;;;;6.13;5.53;;;;;;;23.25;21.76;94179.06;5039831;28;21622;-41
2021/04/04 03:01:56;;;;;;;6.10;5.50;;;;;;;23.00;22.00;94191.44;5039923;28;20068;-40
2021/04/04 03:04:24;;;;;;;6.00;5.40;;;;;;;22.84;21.95;94193.59;5040001;28;20059;-43
2021/04/04 03:06:52;;;;;;;6.65;5.97;;;;;;;23.13;22.18;94190.00;5039701;28;20044;-41
2021/04/04 03:09:22;;;;;;;5.97;5.38;;;;;;;22.83;22.32;94192.06;5057085;28;20056;-42
2021/04/04 03:11:51;;;;;;;6.50;5.90;;;;;;;22.99;22.05;94179.25;5057212;28;20048;-40
2021/04/04 03:14:18;;;;;;;6.45;5.85;;;;;;;23.32;21.57;94181.78;5057126;28;20044;-40
2021/04/04 03:16:46;;;;;;;6.50;5.90;;;;;;;23.31;21.97;94180.25;5056920;28;20045;-40
2021/04/04 03:19:14;;;;;;;6.38;5.78;;;;;;;23.12;21.90;94177.81;5057348;28;20049;-40
2021/04/04 03:21:42;;;;;;;6.72;6.03;;;;;;;22.92;22.20;94179.19;5059374;28;20041;-40
2021/04/04 03:24:10;;;;;;;7.93;7.13;;;;;;;22.67;22.38;94177.06;5077064;28;20328;-40
2021/04/04 03:26:39;;;;;;;7.97;6.13;;;;;;;22.62;22.84;94184.59;5076954;28;20044;-40
2021/04/04 03:29:07;;;;;;;6.72;6.13;;;;;;;23.01;22.19;94176.97;5059369;28;20048;-40
2021/04/04 03:31:35;;;;;;;7.50;6.80;;;;;;;22.67;22.59;94174.38;5076700;28;20055;-40
2021/04/04 03:34:02;;;;;;;6.88;6.28;;;;;;;22.83;22.33;94176.06;5059224;28;20044;-40
2021/04/04 03:36:31;;;;;;;7.80;7.00;;;;;;;22.82;22.28;94175.28;5076598;28;20482;-41
2021/04/04 03:38:58;;;;;;;7.88;6.88;;;;;;;22.60;22.70;94168.97;5059089;28;20053;-41
2021/04/04 03:41:28;;;;;;;7.95;7.05;;;;;;;22.50;22.78;94179.53;5075928;28;20045;-38
2021/04/04 03:43:57;;;;;;;7.90;7.10;;;;;;;22.70;22.43;94178.97;5066167;28;20056;-38
2021/04/04 03:46:26;;;;;;;8.57;7.68;;;;;;;22.56;22.73;94172.75;5021599;28;20409;-40
2021/04/04 03:48:54;;;;;;;7.25;6.55;;;;;;;22.93;22.30;94180.72;5054219;28;20055;-41
2021/04/04 03:51:26;;;;;;;7.88;7.07;;;;;;;23.16;21.89;94167.97;5058952;28;20052;-41
2021/04/04 03:53:55;;;;;;;8.48;7.68;;;;;;;22.75;22.40;94170.66;5076148;28;20044;-41
2021/04/04 03:56:27;;;;;;;7.70;6.90;;;;;;;22.57;22.39;94180.38;5076554;28;20048;-46
2021/04/04 03:58:56;;;;;;;7.90;7.20;;;;;;;22.51;22.44;94173.84;5044682;28;20056;-40
2021/04/04 04:01:25;;;;;;;7.93;7.13;;;;;;;22.45;22.46;94183.31;5038796;28;20053;-41
2021/04/04 04:03:53;;;;;;;8.00;7.20;;;;;;;22.52;22.60;94172.72;5056021;28;20769;-40
2021/04/04 04:06:21;;;;;;;8.23;7.43;;;;;;;22.70;22.47;94180.88;5037656;28;20079;-41
2021/04/04 04:08:48;;;;;;;7.70;6.90;;;;;;;22.57;22.64;94175.03;5056070;28;20374;-40
2021/04/04 04:11:16;;;;;;;8.80;7.88;;;;;;;22.55;22.73;94174.63;5056156;28;20479;-41
2021/04/04 04:13:43;;;;;;;7.63;6.93;;;;;;;22.34;22.86;94183.19;5038285;28;20048;-40
2021/04/04 04:16:12;;;;;;;8.27;7.47;;;;;;;22.57;22.18;94174.28;5038404;28;20341;-42
2021/04/04 04:18:45;;;;;;;8.20;7.40;;;;;;;22.55;22.37;94182.63;5069567;28;20048;-40
2021/04/04 04:21:14;;;;;;;8.82;7.88;;;;;;;23.20;21.86;94174.09;5058654;28;20045;-40
2021/04/04 04:23:42;;;;;;;8.57;7.78;;;;;;;22.78;22.28;94169.91;5048197;28;20044;-40
2021/04/04 04:26:12;;;;;;;8.70;7.75;;;;;;;23.20;21.84;94160.75;5055898;28;20049;-41
2021/04/04 04:28:40;;;;;;;8.73;7.80;;;;;;;22.80;22.13;94172.22;5038141;28;20052;-40
2021/04/04 04:31:10;;;;;;;9.57;7.97;;;;;;;22.92;22.18;94171.97;5038220;28;20056;-40
2021/04/04 04:33:40;;;;;;;10.23;8.30;;;;;;;22.68;22.64;94175.91;5055358;28;20048;-40
2021/04/04 04:36:09;;;;;;;8.77;7.88;;;;;;;22.83;22.52;94182.16;5037980;28;20045;-40
2021/04/04 04:38:38;;;;;;;9.85;8.85;;;;;;;23.15;22.07;94161.06;5038189;28;20045;-41
2021/04/04 04:41:07;;;;;;;9.43;8.52;;;;;;;22.91;21.99;94167.00;5038092;28;20045;-40
2021/04/04 04:43:35;;;;;;;9.15;8.25;;;;;;;22.89;21.95;94174.59;5037846;28;20060;-48
2021/04/04 04:46:03;;;;;;;8.77;7.88;;;;;;;22.67;22.66;94169.06;5037835;28;20435;-40
2021/04/04 04:48:33;;;;;;;9.85;8.57;;;;;;;23.00;22.18;94181.53;5049832;28;20051;-40
2021/04/04 04:51:01;;;;;;;8.80;7.90;;;;;;;22.73;22.66;94172.91;5058054;28;20048;-40
2021/04/04 04:53:28;;;;;;;9.20;8.30;;;;;;;22.57;22.63;94185.69;5057712;28;20048;-40
2021/04/04 04:56:01;;;;;;;9.93;8.68;;;;;;;22.89;22.40;94186.00;5075119;28;20055;-40
2021/04/04 04:58:33;;;;;;;9.52;7.95;;;;;;;22.48;22.80;94187.91;5075385;28;20048;-40
2021/04/04 05:01:07;;;;;;;9.75;8.75;;;;;;;22.91;22.04;94196.31;5057633;28;20048;-40
2021/04/04 05:03:34;;;;;;;9.75;8.77;;;;;;;22.74;22.17;94189.66;5074903;28;20044;-39
2021/04/04 05:06:06;;;;;;;9.18;8.27;;;;;;;22.63;22.36;94189.56;5055407;28;20057;-40
2021/04/04 05:08:34;;;;;;;9.13;8.23;;;;;;;22.71;22.52;94193.84;5066943;28;20488;-40
2021/04/04 05:11:08;;;;;;;11.35;7.78;;;;;;;22.94;22.13;94203.59;5075136;28;20051;-40
2021/04/04 05:13:38;;;;;;;8.68;7.85;;;;;;;22.90;22.21;94200.09;5056580;28;20052;-39
2021/04/04 05:16:09;;;;;;;9.27;7.93;;;;;;;22.88;21.82;94200.47;5074485;28;20044;-40
2021/04/04 05:18:38;;;;;;;11.98;7.90;;;;;;;22.50;22.31;94206.19;5075047;28;20071;-40
2021/04/04 05:21:05;;;;;;;9.10;8.20;;;;;;;22.80;21.95;94200.75;5057622;28;20364;-39
2021/04/04 05:23:32;;;;;;;8.75;7.85;;;;;;;22.50;22.23;94222.91;5069478;28;20048;-39
2021/04/04 05:25:59;;;;;;;9.02;8.13;;;;;;;22.74;22.04;94211.75;5037520;28;20048;-53
2021/04/04 05:28:27;;;;;;;9.57;8.57;;;;;;;22.53;22.13;94222.19;5037782;28;20049;-39
2021/04/04 05:31:00;;;;;;;9.40;8.30;;;;;;;22.70;21.92;94226.94;5055198;28;20456;-39
2021/04/04 05:33:27;;;;;;;8.68;7.85;;;;;;;22.62;22.02;94225.31;5057685;28;20048;-39
2021/04/04 05:35:54;;;;;;;8.77;7.70;;;;;;;22.46;22.02;94211.47;5059485;28;20049;-45
2021/04/04 05:38:21;;;;;;;8.88;7.20;;;;;;;22.84;21.92;94217.56;5054864;28;20045;-40
2021/04/04 05:40:49;;;;;;;8.25;7.43;;;;;;;22.76;21.82;94225.47;5054885;28;20336;-48
2021/04/04 05:43:23;;;;;;;9.38;8.35;;;;;;;22.92;21.53;94221.84;5037297;28;20053;-41
2021/04/04 05:46:08;;;;;;;9.30;8.30;;;;;;;22.61;22.08;94229.13;5034652;28;20057;-44
2021/04/04 05:48:58;;;;;;;9.50;8.50;;;;;;;22.96;21.85;94223.41;5055826;28;20051;-47
2021/04/04 05:51:40;;;;;;;8.63;7.72;;;;;;;23.04;21.81;94219.66;5037199;28;20049;-43
2021/04/04 05:54:25;;;;;;;8.73;7.82;;;;;;;22.63;22.22;94224.19;5037339;28;20444;-42
2021/04/04 05:56:56;;;;;;;9.52;8.63;;;;;;;22.60;22.17;94216.94;5054187;28;20061;-41
2021/04/04 06:00:10;;;;;;;10.73;8.93;;;;;;;22.60;22.63;94216.94;5054540;28;20064;-41
2021/04/04 06:03:09;;;;;;;9.88;8.88;;;;;;;23.23;21.77;94212.56;5053480;28;20053;-39
2021/04/04 06:06:02;;;;;;;9.23;7.82;;;;;;;23.49;21.25;94211.63;5054468;28;20044;-40
2021/04/04 06:09:07;;;;;;;10.85;8.98;;;;;;;23.30;21.52;94220.63;5037012;28;20041;-53
2021/04/04 06:11:55;;;;;;;11.85;8.77;;;;;;;22.82;22.05;94222.50;5054265;28;20075;-40
2021/04/04 06:14:49;;;;;;;9.73;8.68;;;;;;;22.47;22.80;94218.31;5070394;28;20052;-40
2021/04/04 06:17:34;;;;;;;9.68;8.68;;;;;;;22.83;22.17;94224.78;5064406;28;20049;-52
2021/04/04 06:20:13;;;;;;;10.27;8.48;;;;;;;23.04;21.92;94216.22;5073029;28;20055;-39
2021/04/04 06:23:05;;;;;;;9.75;8.70;;;;;;;22.80;22.19;94219.41;5056887;28;20048;-40
2021/04/04 06:26:02;;;;;;;11.35;8.98;;;;;;;23.12;21.97;94233.81;5071000;28;20100;-40
2021/04/04 06:28:44;;;;;;;9.85;8.85;;;;;;;23.14;21.82;94222.78;5071620;28;20051;-39
2021/04/04 06:31:22;;;;;;;9.50;8.50;;;;;;;23.05;22.02;94231.09;5066777;28;20052;-39
2021/04/04 06:34:06;;;;;;;9.77;8.77;;;;;;;22.83;22.34;94235.47;5026502;28;20294;-42
2021/04/04 06:36:43;;;;;;;11.02;8.98;;;;;;;23.13;22.09;94232.66;5056935;28;20056;-45
2021/04/04 06:39:28;;;;;;;9.48;8.48;;;;;;;23.12;21.96;94220.47;5040515;28;20123;-41
2021/04/04 06:42:10;;;;;;;9.63;8.63;;;;;;;22.77;22.49;94221.69;5035730;28;20059;-40
2021/04/04 06:44:46;;;;;;;10.55;8.52;;;;;;;22.77;22.47;94221.69;5057717;28;20444;-40
2021/04/04 06:47:47;;;;;;;9.65;7.95;;;;;;;22.70;22.45;94229.59;5058994;28;20048;-40
2021/04/04 06:50:20;;;;;;;9.38;8.43;;;;;;;22.78;22.30;94223.19;5041999;28;20067;-39
2021/04/04 06:53:06;;;;;;;11.40;9.40;;;;;;;22.89;22.09;94228.66;5054036;28;20048;-41
2021/04/04 06:55:56;;;;;;;9.52;8.52;;;;;;;22.90;22.15;94240.06;5057529;28;20041;-50
2021/04/04 06:59:02;;;;;;;9.68;8.68;;;;;;;23.13;22.05;94246.00;5039807;28;20053;-39
2021/04/04 07:01:45;;;;;;;10.18;9.13;;;;;;;23.18;22.01;94237.69;5041643;28;20053;-40
2021/04/04 07:04:23;;;;;;;9.10;8.18;;;;;;;23.15;21.96;94235.72;5040047;28;20045;-43
2021/04/04 07:07:25;;;;;;;9.25;8.32;;;;;;;22.85;22.40;94249.19;5057261;28;20044;-41
2021/04/04 07:09:58;;;;;;;8.82;7.85;;;;;;;23.21;21.88;94244.19;5057172;28;20045;-41
2021/04/04 07:12:47;;;;;;;9.00;8.10;;;;;;;23.37;21.74;94242.78;5057074;28;20053;-40
2021/04/04 07:15:26;;;;;;;8.95;8.07;;;;;;;23.05;22.04;94247.84;5057054;28;20064;-40
2021/04/04 07:18:39;;;;;;;9.00;8.10;;;;;;;23.09;21.91;94231.88;5074745;28;20056;-50
2021/04/04 07:21:49;;;;;;;7.68;6.88;;;;;;;23.07;21.97;94242.16;5015397;28;20044;-46
2021/04/04 07:24:37;;;;;;;10.73;7.97;;;;;;;23.08;22.26;94225.03;5059025;28;20049;-46
2021/04/04 07:27:13;;;;;;;9.18;8.25;;;;;;;23.02;22.25;94229.16;5056728;28;20052;-46
2021/04/04 07:30:03;;;;;;;8.52;7.65;;;;;;;24.81;24.04;94229.00;5054898;28;20383;-42
2021/04/04 07:32:33;;;;;;;9.32;8.32;;;;;;;23.35;23.19;94239.72;5056770;28;20052;-40
2021/04/04 07:35:20;;;;;;;9.90;7.93;;;;;;;22.85;22.71;94232.41;5056788;28;20049;-40
2021/04/04 07:38:00;;;;;;;9.00;8.00;;;;;;;23.43;22.23;94231.78;5055367;28;20359;-40
2021/04/04 07:40:38;;;;;;;10.40;7.82;;;;;;;23.04;22.47;94224.22;5056519;28;20049;-40
2021/04/04 07:43:10;;;;;;;9.25;7.85;;;;;;;23.33;22.17;94231.31;5056692;28;20053;-40
2021/04/04 07:46:10;;;;;;;8.87;7.97;;;;;;;23.28;21.91;94221.00;5039071;28;20368;-40
2021/04/04 07:48:43;;;;;;;8.43;7.55;;;;;;;23.36;21.87;94230.56;5051675;28;20044;-59
2021/04/04 07:51:14;;;;;;;8.82;7.93;;;;;;;23.01;22.27;94230.28;5076228;28;20051;-44
2021/04/04 07:54:02;;;;;;;11.50;9.98;;;;;;;24.33;22.80;94225.81;5057679;28;20439;-42
2021/04/04 07:56:50;;;;;;;10.85;8.93;;;;;;;23.20;23.25;94226.66;5082113;28;20375;-40
2021/04/04 07:59:57;;;;;;;8.90;7.15;;;;;;;24.33;22.37;94226.59;5023678;28;20359;-39
2021/04/04 08:02:27;;;;;;;16.00;11.52;;;;;;;26.29;22.21;94232.75;4978670;28;20541;-43
2021/04/04 08:05:01;;;;;;;14.02;11.13;;;;;;;27.45;20.56;94231.69;4986710;28;20050;-42
2021/04/04 08:07:41;;;;;;;10.80;8.98;;;;;;;24.93;21.70;94239.34;5029262;28;20553;-46
2021/04/04 08:10:26;;;;;;;11.30;8.30;;;;;;;23.94;21.94;94232.50;5056251;28;20367;-40
2021/04/04 08:13:19;;;;;;;8.77;7.68;;;;;;;23.88;21.65;94223.31;5038436;28;20049;-40
2021/04/04 08:15:49;;;;;;;8.40;7.15;;;;;;;25.61;20.89;94220.66;5056291;28;20367;-41
2021/04/04 08:18:17;;;;;;;17.83;12.48;;;;;;;27.12;21.02;94233.09;5066146;28;20052;-52
2021/04/04 08:20:49;;;;;;;8.93;7.95;;;;;;;21.99;22.43;94242.06;5057487;28;20041;-41
2021/04/04 08:23:42;;;;;;;9.38;8.48;;;;;;;19.83;26.12;94253.16;5057199;28;20045;-39
2021/04/04 08:26:15;;;;;;;9.82;8.82;;;;;;;19.41;26.58;94239.69;5038587;28;20049;-39
2021/04/04 08:28:51;;;;;;;9.80;8.80;;;;;;;23.19;22.15;94247.22;5038240;28;20044;-42
2021/04/04 08:31:30;;;;;;;11.02;9.93;;;;;;;19.14;27.47;94240.56;5038029;28;20124;-40
2021/04/04 08:34:15;;;;;;;10.18;9.07;;;;;;;18.15;30.19;94237.63;5039104;28;20367;-38
2021/04/04 08:36:55;;;;;;;11.80;10.25;;;;;;;17.40;30.22;94252.41;5055554;28;20052;-39
2021/04/04 08:39:25;;;;;;;10.50;9.40;;;;;;;17.61;30.16;94254.91;5038248;28;20045;-36
2021/04/04 08:41:54;;;;;;;10.65;9.25;;;;;;;17.53;30.15;94240.72;5043218;28;20059;-41
2021/04/04 08:44:25;;;;;;;11.45;9.38;;;;;;;17.48;30.74;94233.03;5028528;28;20044;-38
2021/04/04 08:47:09;;;;;;;11.65;10.10;;;;;;;17.72;30.89;94238.31;5046679;28;20080;-39
2021/04/04 08:49:37;;;;;;;12.13;9.80;;;;;;;17.17;31.58;94244.91;5050601;28;20367;-40
2021/04/04 08:52:11;;;;;;;10.63;9.00;;;;;;;17.36;31.28;94246.25;5059645;28;20049;-42
2021/04/04 08:54:39;;;;;;;11.70;10.50;;;;;;;17.71;30.39;94236.00;5057917;28;20044;-40
2021/04/04 08:57:07;;;;;;;13.00;9.80;;;;;;;17.26;30.34;94242.19;5075945;28;20374;-41
2021/04/04 08:59:36;;;;;;;11.48;9.85;;;;;;;17.08;31.22;94231.06;5087133;28;20044;-40
2021/04/04 09:02:06;;;;;;;10.77;9.48;;;;;;;17.10;32.12;94228.84;5061211;28;20051;-40
2021/04/04 09:04:39;;;;;;;12.70;9.88;;;;;;;17.43;30.36;94225.31;5085661;28;20052;-39
2021/04/04 09:07:07;;;;;;;11.93;9.30;;;;;;;17.20;31.03;94223.16;5095289;28;20371;-43
2021/04/04 09:09:39;;;;;;;10.25;8.82;;;;;;;17.31;30.87;94226.09;5095436;28;20125;-52
2021/04/04 09:12:08;;;;;;;10.07;8.50;;;;;;;17.06;32.29;94222.69;5085385;28;20048;-42
2021/04/04 09:14:37;;;;;;;10.48;9.13;;;;;;;17.12;32.47;94221.38;5075210;28;20048;-45
2021/04/04 09:17:12;;;;;;;10.18;8.80;;;;;;;17.13;31.36;94217.63;5065267;28;20453;-42
2021/04/04 09:19:41;;;;;;;9.90;8.90;;;;;;;17.15;30.85;94215.41;5068568;28;20059;-53
2021/04/04 09:22:15;;;;;;;10.15;9.07;;;;;;;15.49;33.43;94221.00;5048102;28;20052;-41
2021/04/04 09:24:49;;;;;;;10.70;8.88;;;;;;;13.16;38.73;94222.91;5062851;28;20056;-39
2021/04/04 09:27:18;;;;;;;10.45;8.63;;;;;;;13.01;40.52;94215.47;5053416;28;20055;-43
2021/04/04 09:29:49;;;;;;;10.00;8.23;;;;;;;14.73;35.90;94222.59;5050949;28;20059;-46
2021/04/04 09:32:38;;;;;;;11.10;8.55;;;;;;;15.57;34.24;94218.28;5053713;28;20060;-49
2021/04/04 09:35:15;;;;;;;9.45;7.97;;;;;;;16.10;33.11;94213.44;5054641;28;20043;-42
2021/04/04 09:37:43;;;;;;;11.07;8.70;;;;;;;19.89;26.99;94222.56;5036189;28;20052;-43
2021/04/04 09:40:11;;;;;;;23.63;9.70;;;;;;;16.85;33.36;94216.72;5037259;28;20376;-52
2021/04/04 09:42:39;;;;;;;9.80;8.68;;;;;;;18.99;29.13;94216.34;5054823;28;20060;-47
2021/04/04 09:45:23;;;;;;;10.68;8.93;;;;;;;19.45;27.46;94224.63;5037308;28;20140;-48
2021/04/04 09:47:51;;;;;;;13.10;11.80;;;;;;;19.04;27.92;94216.13;5059270;28;20049;-45
2021/04/04 09:50:25;;;;;;;10.93;9.55;;;;;;;18.83;28.55;94223.56;5054560;28;20355;-46
2021/04/04 09:52:53;;;;;;;10.70;9.60;;;;;;;19.06;28.11;94229.78;5037300;28;20048;-42
2021/04/04 09:55:22;;;;;;;9.77;8.77;;;;;;;19.09;28.29;94226.47;5054683;28;20382;-43
2021/04/04 09:57:55;;;;;;;10.05;9.05;;;;;;;19.18;28.02;94230.81;5054605;28;20041;-43
2021/04/04 10:00:31;;;;;;;9.77;8.80;;;;;;;18.88;28.21;94228.59;5054569;28;20486;-44
2021/04/04 10:03:08;;;;;;;10.88;9.18;;;;;;;18.85;27.97;94231.91;5055030;28;20383;-40
2021/04/04 10:05:38;;;;;;;10.43;9.43;;;;;;;18.74;28.19;94225.59;5058479;28;20045;-45
2021/04/04 10:08:15;;;;;;;10.27;9.25;;;;;;;19.07;28.18;94228.69;5058746;28;20041;-42
2021/04/04 10:10:53;;;;;;;10.30;9.30;;;;;;;18.73;28.79;94231.97;5077692;28;20126;-40
2021/04/04 10:13:27;;;;;;;9.95;8.95;;;;;;;18.97;28.52;94225.75;5095346;28;20055;-48
2021/04/04 10:15:56;;;;;;;9.02;8.05;;;;;;;19.00;27.93;94227.75;5078271;28;20048;-49
2021/04/04 10:18:24;;;;;;;10.23;8.30;;;;;;;18.74;28.08;94225.59;5070841;28;20044;-44
2021/04/04 10:20:56;;;;;;;8.68;7.50;;;;;;;18.77;27.87;94222.28;5078356;28;20083;-44
2021/04/04 10:23:36;;;;;;;7.53;6.70;;;;;;;18.62;27.60;94230.94;5078324;28;20446;-44
2021/04/04 10:26:07;;;;;;;7.15;5.97;;;;;;;18.05;28.63;94229.41;5075075;28;20053;-43
2021/04/04 10:28:51;;;;;;;7.35;6.53;;;;;;;18.04;28.53;94228.66;5094741;28;21458;-44
2021/04/04 10:31:23;;;;;;;8.65;7.55;;;;;;;18.21;28.97;94232.88;5057845;28;20053;-44
2021/04/04 10:34:03;;;;;;;7.80;6.68;;;;;;;18.00;28.75;94219.06;5068220;28;20055;-43
2021/04/04 10:36:30;;;;;;;7.65;6.85;;;;;;;17.74;29.67;94230.06;5077788;28;20045;-42
2021/04/04 10:38:57;;;;;;;8.15;6.82;;;;;;;18.18;28.94;94225.59;5077932;28;20048;-43
2021/04/04 10:41:34;;;;;;;9.27;8.38;;;;;;;18.01;29.31;94224.03;5063370;28;20048;-43
2021/04/04 10:44:01;;;;;;;8.80;8.00;;;;;;;18.46;28.71;94231.66;5057906;28;20056;-43
2021/04/04 10:46:33;;;;;;;9.23;7.70;;;;;;;18.35;28.47;94222.69;5043555;28;20044;-42
2021/04/04 10:49:04;;;;;;;8.07;7.03;;;;;;;18.42;28.39;94225.50;5074702;28;20044;-43
2021/04/04 10:51:31;;;;;;;5.70;5.13;;;;;;;18.26;28.50;94223.94;5057432;28;20466;-42
2021/04/04 10:54:01;;;;;;;6.80;6.10;;;;;;;18.42;28.40;94228.16;5056599;28;20371;-43
2021/04/04 10:56:30;;;;;;;9.35;6.00;;;;;;;18.14;28.46;94227.38;5056407;28;20056;-42
2021/04/04 10:58:59;;;;;;;7.43;6.07;;;;;;;18.19;28.42;94229.78;5057523;28;20057;-42
2021/04/04 11:01:28;;;;;;;5.93;5.20;;;;;;;18.07;28.87;94232.50;5039839;28;20064;-42
2021/04/04 11:03:56;;;;;;;6.70;5.82;;;;;;;18.17;28.71;94237.28;5040066;28;20048;-43
2021/04/04 11:06:23;;;;;;;7.22;6.15;;;;;;;18.32;28.61;94233.94;5039823;28;20060;-42
2021/04/04 11:08:50;;;;;;;7.03;6.00;;;;;;;18.44;28.67;94225.94;5057533;28;20451;-42
2021/04/04 11:11:17;;;;;;;7.28;6.45;;;;;;;18.12;29.07;94226.97;5056378;28;20048;-42
2021/04/04 11:13:47;;;;;;;6.30;5.70;;;;;;;18.18;28.66;94234.31;5039336;28;20052;-42
2021/04/04 11:16:15;;;;;;;7.25;6.05;;;;;;;18.35;28.57;94233.25;5056874;28;20048;-42
2021/04/04 11:18:48;;;;;;;6.53;5.85;;;;;;;18.15;28.84;94228.94;5039569;28;20056;-42
2021/04/04 11:21:28;;;;;;;6.90;6.20;;;;;;;18.11;29.02;94228.84;5039594;28;20049;-43
2021/04/04 11:23:56;;;;;;;6.90;6.20;;;;;;;18.36;28.52;94223.44;5057125;28;20056;-42
2021/04/04 11:26:32;;;;;;;6.95;6.25;;;;;;;18.34;29.09;94225.66;5039552;28;20060;-43
2021/04/04 11:29:14;;;;;;;7.35;6.65;;;;;;;18.40;28.61;94222.44;5057046;28;20056;-42
2021/04/04 11:31:47;;;;;;;7.28;6.25;;;;;;;18.60;28.45;94219.91;5039217;28;20049;-42
2021/04/04 11:34:34;;;;;;;7.70;6.60;;;;;;;18.39;28.51;94197.06;5056895;28;20056;-42
2021/04/04 11:37:26;;;;;;;7.43;6.63;;;;;;;18.38;28.69;94203.47;5056854;28;20051;-42
2021/04/04 11:40:14;;;;;;;8.35;7.45;;;;;;;18.35;28.42;94196.22;5056822;28;20356;-43
2021/04/04 11:42:42;;;;;;;7.97;7.15;;;;;;;18.33;29.39;94190.50;5055679;28;20049;-44
2021/04/04 11:45:10;;;;;;;10.27;9.20;;;;;;;18.60;28.85;94196.84;5056602;28;20052;-42
2021/04/04 11:47:38;;;;;;;10.68;9.52;;;;;;;18.48;28.74;94179.16;5039175;28;20041;-43
2021/04/04 11:50:26;;;;;;;16.23;14.48;;;;;;;18.74;28.60;94180.59;5056447;28;20045;-43
2021/04/04 11:52:54;;;;;;;8.98;8.05;;;;;;;18.83;28.40;94185.72;5056479;28;20056;-44
2021/04/04 11:55:21;;;;;;;9.15;7.60;;;;;;;18.94;28.45;94192.78;5075058;28;20056;-46
2021/04/04 11:57:49;;;;;;;8.63;7.25;;;;;;;19.38;27.15;94195.31;5081371;28;20051;-42
2021/04/04 12:00:17;;;;;;;9.10;7.50;;;;;;;19.33;27.46;94185.75;5084484;28;20474;-41
2021/04/04 12:02:57;;;;;;;7.95;7.15;;;;;;;19.43;26.99;94181.78;5065216;28;20380;-40